Time;durP1;ratioP1;P1;durP2;ratioP2;P2;SDS_P1;SDS_P2;PMS_P1;PMS_P2;Temp;Humidity;BMP_temperature;BMP_pressure;BME280_temperature;BME280_humidity;BME280_pressure;Samples;Min_cycle;Max_cycle;Signal;HPM_P1;HPM_P2
2021/05/18 00:00:43;;;;;;;27.17;13.88;;;;;;;12.83;100.00;98869.20;1676547;84;21137;-85
2021/05/18 00:03:10;;;;;;;16.42;10.85;;;;;;;12.80;100.00;98863.17;1674962;84;21146;-85
2021/05/18 00:06:00;;;;;;;18.17;12.93;;;;;;;12.80;100.00;98849.96;1676617;85;21131;-85
2021/05/18 00:08:28;;;;;;;22.00;12.95;;;;;;;12.82;100.00;98858.27;1639479;86;21149;-79
2021/05/18 00:13:51;;;;;;;17.27;10.93;;;;;;;12.78;100.00;98847.89;1600955;89;21232;-78
2021/05/18 00:16:20;;;;;;;15.72;11.93;;;;;;;12.74;100.00;98848.20;1627788;88;21071;-80
2021/05/18 00:18:48;;;;;;;20.68;11.55;;;;;;;12.67;100.00;98846.91;1600956;89;21203;-78
2021/05/18 00:21:15;;;;;;;16.37;11.12;;;;;;;12.64;100.00;98842.69;1627846;85;21665;-73
2021/05/18 00:23:41;;;;;;;34.45;12.35;;;;;;;12.63;100.00;98848.92;1621752;87;21087;-72
2021/05/18 00:26:09;;;;;;;28.07;14.03;;;;;;;12.60;100.00;98845.14;1598389;87;21159;-73
2021/05/18 00:28:36;;;;;;;39.05;15.00;;;;;;;12.58;100.00;98847.04;1605394;89;21095;-72
2021/05/18 00:31:02;;;;;;;23.98;11.50;;;;;;;12.56;100.00;98843.65;1614510;88;21149;-73
2021/05/18 00:33:30;;;;;;;26.55;14.58;;;;;;;12.58;100.00;98843.08;1610206;89;21115;-73
2021/05/18 00:35:57;;;;;;;33.83;13.85;;;;;;;12.62;100.00;98838.45;1614626;88;21146;-74
2021/05/18 00:38:24;;;;;;;25.68;14.90;;;;;;;12.63;100.00;98826.92;1611924;88;21117;-73
2021/05/18 00:40:51;;;;;;;20.02;13.72;;;;;;;12.60;100.00;98826.66;1623731;87;21655;-72
2021/05/18 00:43:18;;;;;;;14.20;11.50;;;;;;;12.58;100.00;98825.91;1618518;87;21488;-73
2021/05/18 00:45:49;;;;;;;17.85;13.53;;;;;;;12.56;100.00;98836.59;1614801;88;21584;-74
2021/05/18 00:48:18;;;;;;;18.05;12.63;;;;;;;12.56;100.00;98839.69;1615196;88;21704;-73
2021/05/18 00:51:30;;;;;;;30.45;12.10;;;;;;;12.64;100.00;98833.44;1773901;79;22721;-73
2021/05/18 00:54:02;;;;;;;31.30;13.15;;;;;;;12.61;100.00;98834.97;1732557;82;21083;-73
2021/05/18 00:58:25;;;;;;;38.15;11.63;;;;;;;12.60;100.00;98823.53;1716704;83;21093;-73
2021/05/18 00:59:02;;;;;;;18.52;10.38;;;;;;;12.59;100.00;98819.22;1712864;83;20976;-73
2021/05/18 01:01:30;;;;;;;24.25;12.13;;;;;;;12.57;100.00;98818.47;1717091;83;20976;-73
2021/05/18 01:03:57;;;;;;;11.60;8.63;;;;;;;12.57;100.00;98814.98;1717302;83;21095;-73
2021/05/18 01:06:29;;;;;;;16.90;11.75;;;;;;;12.55;100.00;98822.16;1717048;83;21067;-72
2021/05/18 01:09:14;;;;;;;20.52;11.95;;;;;;;12.56;100.00;98815.92;1717123;83;21114;-74
2021/05/18 01:11:45;;;;;;;24.72;10.93;;;;;;;12.56;100.00;98809.31;1690503;83;21095;-74
2021/05/18 01:14:16;;;;;;;17.92;10.08;;;;;;;12.52;100.00;98803.89;1716929;83;21621;-74
2021/05/18 01:16:51;;;;;;;31.77;10.63;;;;;;;12.49;100.00;98805.39;1716864;83;21107;-73
2021/05/18 01:19:21;;;;;;;13.70;9.88;;;;;;;12.44;100.00;98806.17;1716964;83;21344;-74
2021/05/18 01:21:48;;;;;;;15.38;10.60;;;;;;;12.36;100.00;98806.20;1716990;83;21091;-73
2021/05/18 01:24:17;;;;;;;24.10;10.13;;;;;;;12.34;100.00;98809.42;1716295;83;21880;-75
2021/05/18 01:26:45;;;;;;;39.20;12.00;;;;;;;12.28;100.00;98809.80;1712813;83;21057;-74
2021/05/18 01:29:13;;;;;;;33.33;12.35;;;;;;;12.26;100.00;98800.30;1702669;84;21115;-74
2021/05/18 01:31:43;;;;;;;27.40;11.10;;;;;;;12.24;100.00;98808.34;1702993;84;21116;-74
2021/05/18 01:34:10;;;;;;;29.23;12.73;;;;;;;12.22;100.00;98807.59;1703073;84;21109;-74
2021/05/18 01:36:39;;;;;;;41.08;16.73;;;;;;;12.23;100.00;98806.63;1702538;83;21136;-74
2021/05/18 01:44:31;;;;;;;43.92;16.27;;;;;;;12.23;100.00;98795.23;1696598;83;21100;-72
2021/05/18 01:46:58;;;;;;;33.23;15.83;;;;;;;12.21;100.00;98791.36;1705367;83;21111;-74
2021/05/18 01:49:27;;;;;;;34.25;16.87;;;;;;;12.19;100.00;98793.25;1709028;83;21661;-75
2021/05/18 01:51:58;;;;;;;27.10;13.18;;;;;;;12.20;100.00;98785.72;1701842;83;21122;-74
2021/05/18 01:54:28;;;;;;;30.25;14.30;;;;;;;12.19;100.00;98786.65;1707352;83;21159;-74
2021/05/18 01:59:30;;;;;;;33.48;14.33;;;;;;;12.21;100.00;98786.08;1670895;83;21653;-75
2021/05/18 02:02:03;;;;;;;36.85;13.95;;;;;;;12.21;100.00;98797.95;1701026;83;21117;-74
2021/05/18 02:04:35;;;;;;;42.93;13.83;;;;;;;12.21;100.00;98795.31;1675389;84;21130;-74
2021/05/18 02:07:14;;;;;;;38.55;14.35;;;;;;;12.17;100.00;98796.48;1692932;83;21140;-74
2021/05/18 02:09:42;;;;;;;29.77;14.65;;;;;;;12.12;100.00;98792.83;1707992;83;21147;-74
2021/05/18 02:12:12;;;;;;;48.60;14.95;;;;;;;12.11;100.00;98791.59;1709928;83;21617;-74
2021/05/18 02:14:44;;;;;;;42.40;14.03;;;;;;;12.09;100.00;98797.44;1703276;83;21069;-74
2021/05/18 02:25:23;;;;;;;31.33;16.82;;;;;;;12.11;100.00;98788.96;1690284;84;21056;-74
2021/05/18 02:28:01;;;;;;;14.00;9.65;;;;;;;12.12;100.00;98782.27;1692999;83;21657;-73
2021/05/18 02:30:30;;;;;;;15.58;12.33;;;;;;;12.10;100.00;98782.84;1676707;84;21115;-74
2021/05/18 02:32:57;;;;;;;22.93;15.63;;;;;;;12.16;100.00;98779.78;1683565;84;21121;-74
2021/05/18 02:35:33;;;;;;;19.95;15.70;;;;;;;12.20;100.00;98788.36;1695667;84;21080;-73
2021/05/18 02:38:00;;;;;;;21.75;17.40;;;;;;;12.23;100.00;98790.79;1690788;84;21112;-74
2021/05/18 02:40:30;;;;;;;30.77;18.07;;;;;;;12.25;100.00;98796.82;1682687;84;21090;-73
2021/05/18 02:43:03;;;;;;;32.03;17.73;;;;;;;12.24;100.00;98799.09;1681316;81;21116;-74
2021/05/18 02:45:40;;;;;;;29.00;17.37;;;;;;;12.21;100.00;98804.56;1653922;85;21597;-72
2021/05/18 02:50:51;;;;;;;22.40;15.93;;;;;;;12.16;100.00;98802.70;1655421;85;21151;-71
2021/05/18 02:53:21;;;;;;;25.72;15.43;;;;;;;12.13;100.00;98804.22;1689013;84;21541;-71
2021/05/18 02:58:26;;;;;;;17.62;13.65;;;;;;;12.06;100.00;98804.25;1682090;81;21206;-74
2021/05/18 03:00:56;;;;;;;17.50;13.05;;;;;;;12.06;100.00;98804.25;1700457;83;21117;-77
2021/05/18 03:03:23;;;;;;;12.40;11.10;;;;;;;12.12;100.00;98810.42;1699754;83;21156;-75
2021/05/18 03:05:50;;;;;;;14.80;10.85;;;;;;;12.14;100.00;98807.22;1696018;83;21589;-74
2021/05/18 03:08:19;;;;;;;15.72;10.40;;;;;;;12.16;100.00;98800.90;1697400;83;21139;-73
2021/05/18 03:10:47;;;;;;;13.53;10.72;;;;;;;12.18;100.00;98808.73;1660504;85;21083;-73
2021/05/18 03:13:14;;;;;;;21.07;13.43;;;;;;;12.22;100.00;98811.55;1659986;81;21099;-71
2021/05/18 03:15:41;;;;;;;17.23;13.53;;;;;;;12.26;100.00;98809.53;1638638;85;21710;-70
2021/05/18 03:18:08;;;;;;;18.07;14.40;;;;;;;12.30;100.00;98802.64;1653488;85;21120;-72
2021/05/18 03:20:36;;;;;;;26.35;12.63;;;;;;;12.37;100.00;98801.77;1639848;85;21672;-72
2021/05/18 03:23:03;;;;;;;19.40;13.15;;;;;;;12.43;100.00;98784.70;1643858;86;21137;-71
2021/05/18 03:25:30;;;;;;;22.00;12.80;;;;;;;12.49;100.00;98802.30;1685341;84;21075;-73
2021/05/18 03:27:59;;;;;;;18.45;11.10;;;;;;;12.55;100.00;98809.80;1681057;84;21126;-71
2021/05/18 03:35:48;;;;;;;25.48;12.90;;;;;;;12.60;100.00;98807.69;1679176;85;21072;-78
2021/05/18 03:38:57;;;;;;;17.30;13.62;;;;;;;12.60;100.00;98820.05;1664518;85;21420;-79
2021/05/18 03:40:53;;;;;;;20.77;13.18;;;;;;;12.62;100.00;98818.16;1651632;83;21176;-67
2021/05/18 03:48:38;;;;;;;16.93;12.75;;;;;;;12.67;100.00;98813.41;1722807;82;21124;-66
2021/05/18 03:48:43;;;;;;;14.70;11.57;;;;;;;12.74;100.00;98817.34;1688227;83;21126;-64
2021/05/18 03:54:03;;;;;;;13.98;11.78;;;;;;;12.84;100.00;98823.33;1699530;84;21271;-66
2021/05/18 04:04:36;;;;;;;13.00;10.18;;;;;;;13.14;100.00;98837.13;1710662;83;21624;-70
2021/05/18 04:12:46;;;;;;;27.30;17.37;;;;;;;13.25;100.00;98828.92;1712658;83;21079;-69
2021/05/18 04:18:06;;;;;;;38.42;22.25;;;;;;;13.28;100.00;98838.02;1683601;83;21086;-70
2021/05/18 04:23:29;;;;;;;21.90;15.13;;;;;;;13.37;100.00;98835.58;1702773;83;21602;-67
2021/05/18 05:00:50;;;;;;;20.55;12.70;;;;;;;13.81;99.95;98824.16;1675427;81;21113;-71
2021/05/18 05:16:15;;;;;;;15.15;12.10;;;;;;;14.24;97.43;98807.81;1675450;85;21479;-75
2021/05/18 05:18:42;;;;;;;17.60;11.50;;;;;;;14.35;96.99;98808.36;1688340;82;21130;-75
2021/05/18 05:21:11;;;;;;;14.87;10.78;;;;;;;14.41;96.50;98804.78;1703719;83;21553;-75
2021/05/18 05:23:39;;;;;;;19.42;10.88;;;;;;;14.48;96.33;98806.01;1703896;83;21147;-75
2021/05/18 05:26:06;;;;;;;22.55;11.60;;;;;;;14.56;95.85;98804.63;1703189;84;21157;-76
2021/05/18 05:28:32;;;;;;;16.17;10.68;;;;;;;14.63;95.34;98809.83;1698799;82;21656;-75
2021/05/18 05:31:11;;;;;;;14.28;10.55;;;;;;;14.72;95.19;98816.25;1731115;81;21171;-71
2021/05/18 05:33:38;;;;;;;15.13;12.55;;;;;;;14.75;93.91;98815.55;1717920;81;21100;-70
2021/05/18 05:36:05;;;;;;;15.70;10.18;;;;;;;14.76;93.23;98814.58;1734293;82;21103;-70
2021/05/18 05:38:32;;;;;;;13.48;9.95;;;;;;;14.81;93.43;98817.72;1732254;81;21076;-69
2021/05/18 05:41:01;;;;;;;14.45;12.07;;;;;;;14.91;93.20;98817.89;1732951;81;21083;-71
2021/05/18 05:43:28;;;;;;;13.62;11.20;;;;;;;14.97;92.26;98822.70;1730639;81;21131;-69
2021/05/18 05:45:55;;;;;;;17.37;11.30;;;;;;;15.02;92.27;98822.36;1683810;81;21106;-77
2021/05/18 05:48:22;;;;;;;19.48;12.05;;;;;;;15.06;92.09;98823.82;1677021;85;21103;-77
2021/05/18 05:50:49;;;;;;;14.68;12.10;;;;;;;15.15;92.26;98823.12;1676840;85;21484;-78
2021/05/18 05:53:16;;;;;;;21.25;14.18;;;;;;;15.17;91.35;98823.84;1674379;85;21100;-78
2021/05/18 05:55:44;;;;;;;17.80;11.95;;;;;;;15.15;91.74;98823.12;1672007;85;21059;-75
2021/05/18 05:58:11;;;;;;;15.68;12.47;;;;;;;15.20;92.07;98810.34;1673589;85;21635;-78
2021/05/18 06:00:39;;;;;;;21.33;12.85;;;;;;;15.25;91.59;98816.16;1707380;81;21059;-71
2021/05/18 06:03:06;;;;;;;18.77;12.25;;;;;;;15.27;91.61;98816.86;1725049;83;21200;-71
2021/05/18 06:05:32;;;;;;;14.65;12.90;;;;;;;15.28;91.11;98817.73;1725372;83;21062;-71
2021/05/18 06:07:59;;;;;;;13.60;12.15;;;;;;;15.25;90.90;98821.92;1725252;83;21150;-71
2021/05/18 06:10:35;;;;;;;14.45;11.25;;;;;;;15.23;91.19;98819.41;1724795;83;21134;-69
2021/05/18 06:29:56;;;;;;;20.92;14.73;;;;;;;15.31;91.83;98797.59;1696913;80;21059;-70
2021/05/18 06:42:57;;;;;;;21.95;15.03;;;;;;;15.88;90.88;98793.15;1680915;85;21146;-71
2021/05/18 06:48:04;;;;;;;22.15;15.13;;;;;;;16.29;89.07;98788.47;1710032;83;21114;-79
2021/05/18 06:50:32;;;;;;;23.00;14.75;;;;;;;16.53;88.83;98786.91;1679336;83;21724;-78
2021/05/18 06:53:02;;;;;;;22.87;15.10;;;;;;;16.72;87.33;98793.34;1717364;83;21564;-75
2021/05/18 06:55:33;;;;;;;20.97;13.62;;;;;;;16.77;86.34;98795.13;1715020;83;21091;-79
2021/05/18 06:58:05;;;;;;;19.73;13.65;;;;;;;16.75;86.51;98794.44;1715397;83;21163;-83
2021/05/18 07:00:28;;;;;;;17.07;12.85;;;;;;;16.77;85.49;98793.80;1684402;81;21108;-71
2021/05/18 07:02:57;;;;;;;17.27;14.00;;;;;;;16.72;85.99;98784.05;1623661;88;21666;-73
2021/05/18 07:10:44;;;;;;;20.43;14.18;;;;;;;16.58;86.61;98790.02;1652166;86;21103;-72
2021/05/18 07:13:13;;;;;;;20.95;14.68;;;;;;;16.51;86.89;98792.00;1652235;86;21733;-73
2021/05/18 07:15:40;;;;;;;18.80;14.07;;;;;;;16.45;87.36;98798.67;1669498;80;21099;-72
2021/05/18 07:18:07;;;;;;;15.23;11.78;;;;;;;16.36;87.89;98796.78;1676141;84;21150;-71
2021/05/18 07:20:36;;;;;;;21.40;14.50;;;;;;;16.27;88.28;98791.73;1675974;84;21085;-71
2021/05/18 07:23:13;;;;;;;23.22;14.85;;;;;;;16.17;89.11;98791.27;1683371;85;21110;-70
2021/05/18 07:25:39;;;;;;;20.00;14.20;;;;;;;15.93;91.03;98777.20;1662641;85;21403;-71
2021/05/18 07:28:07;;;;;;;18.10;15.28;;;;;;;15.90;92.11;98792.55;1664818;85;21191;-71
2021/05/18 07:30:36;;;;;;;17.95;14.93;;;;;;;15.84;92.48;98794.35;1686963;79;21141;-72
2021/05/18 07:33:03;;;;;;;19.40;14.30;;;;;;;15.76;93.14;98802.94;1699368;84;21109;-73
2021/05/18 07:35:31;;;;;;;17.48;13.35;;;;;;;15.65;93.69;98799.77;1712533;83;21102;-71
2021/05/18 07:37:58;;;;;;;19.95;15.38;;;;;;;15.53;94.51;98801.58;1693644;84;21660;-72
2021/05/18 07:40:25;;;;;;;17.60;14.43;;;;;;;15.44;95.65;98799.66;1693768;84;21150;-72
2021/05/18 07:42:52;;;;;;;16.45;13.95;;;;;;;15.36;96.31;98798.55;1693343;84;21098;-72
2021/05/18 07:45:26;;;;;;;19.35;15.48;;;;;;;15.29;96.88;98789.73;1688951;80;21153;-70
2021/05/18 07:47:57;;;;;;;16.77;14.33;;;;;;;15.24;97.68;98787.09;1673217;85;21122;-71
2021/05/18 07:50:25;;;;;;;23.10;15.95;;;;;;;15.18;97.92;98793.70;1692891;84;21078;-71
2021/05/18 08:06:25;;;;;;;20.15;15.30;;;;;;;14.90;100.00;98799.80;1620239;87;21147;-73
2021/05/18 08:08:52;;;;;;;24.87;16.77;;;;;;;14.86;100.00;98811.62;1620129;87;21647;-72
2021/05/18 08:11:18;;;;;;;27.70;15.50;;;;;;;14.85;100.00;98819.19;1593466;87;21132;-73
2021/05/18 08:13:48;;;;;;;25.95;18.12;;;;;;;14.80;100.00;98821.34;1618386;87;21126;-73
2021/05/18 08:19:18;;;;;;;32.58;21.35;;;;;;;14.78;100.00;98800.73;1637681;85;21105;-71
2021/05/18 10:16:32;;;;;;;3.00;1.50;;;;;;;22.83;54.75;98657.91;1637150;83;21544;-72
2021/05/18 10:37:26;;;;;;;6.67;1.65;;;;;;;24.15;49.78;98629.10;1612826;88;21681;-73
2021/05/18 10:40:30;;;;;;;10.75;1.92;;;;;;;24.23;49.74;98625.84;1607360;87;21152;-73
2021/05/18 10:43:28;;;;;;;6.65;1.85;;;;;;;24.37;49.65;98628.76;1593970;88;21152;-75
2021/05/18 10:46:04;;;;;;;2.85;1.30;;;;;;;24.21;49.08;98643.19;1619647;81;21698;-72
2021/05/18 10:48:52;;;;;;;3.45;1.20;;;;;;;24.07;49.08;98652.87;1575568;90;21140;-71
2021/05/18 10:51:43;;;;;;;2.90;1.57;;;;;;;23.81;50.36;98647.33;1546675;90;21244;-73
2021/05/18 10:54:43;;;;;;;5.00;1.02;;;;;;;23.49;51.14;98638.92;1615741;87;21079;-74
2021/05/18 10:57:20;;;;;;;4.10;1.22;;;;;;;23.66;50.67;98637.80;1609119;87;21111;-72
2021/05/18 10:59:58;;;;;;;4.78;1.65;;;;;;;23.75;51.46;98618.47;1599745;87;21072;-72
2021/05/18 11:02:32;;;;;;;6.45;1.77;;;;;;;24.08;50.82;98615.02;1691656;83;21142;-77
2021/05/18 11:05:03;;;;;;;6.75;1.80;;;;;;;24.25;50.42;98616.26;1658503;84;21096;-77
2021/05/18 11:07:36;;;;;;;2.90;1.30;;;;;;;24.46;49.45;98608.83;1687679;83;21088;-76
2021/05/18 11:10:07;;;;;;;4.92;1.80;;;;;;;24.61;47.98;98602.14;1687826;83;21142;-76
2021/05/18 11:12:36;;;;;;;3.10;1.50;;;;;;;24.63;47.57;98610.88;1687270;83;21423;-76
2021/05/18 11:15:23;;;;;;;6.50;1.70;;;;;;;24.45;48.66;98617.39;1681722;82;22345;-74
2021/05/18 11:17:55;;;;;;;6.40;1.90;;;;;;;23.91;49.68;98626.10;1672044;83;21130;-73
2021/05/18 11:23:24;;;;;;;3.62;1.75;;;;;;;22.79;53.26;98636.95;1671999;83;21115;-74
2021/05/18 11:26:04;;;;;;;3.37;1.95;;;;;;;22.19;54.27;98639.50;1679532;84;21602;-74
2021/05/18 11:28:40;;;;;;;5.40;2.40;;;;;;;21.50;57.59;98630.35;1672114;83;21102;-73
2021/05/18 11:31:19;;;;;;;5.28;3.02;;;;;;;21.08;59.98;98620.47;1685048;81;21207;-76
2021/05/18 11:33:56;;;;;;;10.40;3.20;;;;;;;20.78;60.50;98614.31;1693663;83;21082;-77
2021/05/18 11:36:28;;;;;;;7.58;2.90;;;;;;;20.47;61.75;98610.22;1632971;86;21258;-76
2021/05/18 11:39:19;;;;;;;7.10;2.98;;;;;;;20.20;62.87;98601.87;1659149;86;21096;-77
2021/05/18 11:41:42;;;;;;;6.17;3.12;;;;;;;20.09;63.82;98602.95;1652936;86;21087;-77
2021/05/18 11:44:12;;;;;;;10.30;3.15;;;;;;;20.00;64.65;98599.03;1642871;86;21171;-78
2021/05/18 11:46:48;;;;;;;11.83;3.80;;;;;;;19.89;65.43;98596.92;1661118;82;21138;-72
2021/05/18 11:49:15;;;;;;;7.95;2.87;;;;;;;19.80;65.90;98596.50;1683342;82;21518;-73
2021/05/18 11:51:52;;;;;;;4.22;2.60;;;;;;;19.67;66.25;98589.36;1676321;84;21091;-71
2021/05/18 11:54:22;;;;;;;5.97;3.08;;;;;;;19.56;66.56;98596.26;1691202;83;21095;-72
2021/05/18 11:56:53;;;;;;;6.33;2.60;;;;;;;19.45;67.04;98590.13;1664737;84;21633;-71
2021/05/18 11:59:24;;;;;;;7.10;3.15;;;;;;;19.44;67.36;98583.13;1673455;82;21601;-71
2021/05/18 12:01:58;;;;;;;5.42;3.27;;;;;;;19.46;67.78;98574.47;1681822;80;21100;-73
2021/05/18 12:04:27;;;;;;;8.78;3.10;;;;;;;19.43;68.25;98582.76;1670738;85;21217;-72
2021/05/18 12:07:07;;;;;;;4.50;3.10;;;;;;;19.34;69.80;98594.34;1705744;83;21135;-73
2021/05/18 12:09:35;;;;;;;7.30;3.50;;;;;;;19.19;70.68;98602.03;1665695;85;21431;-71
2021/05/18 12:12:08;;;;;;;4.87;2.90;;;;;;;18.94;72.81;98592.88;1709169;83;21040;-73
2021/05/18 12:14:45;;;;;;;7.20;3.20;;;;;;;18.74;74.46;98595.25;1713664;83;21638;-73
2021/05/18 12:17:12;;;;;;;8.45;4.05;;;;;;;18.53;75.63;98602.96;1688014;81;21170;-70
2021/05/18 12:19:40;;;;;;;8.68;3.50;;;;;;;18.37;76.97;98602.72;1691479;84;21133;-71
2021/05/18 12:22:07;;;;;;;6.40;3.60;;;;;;;18.23;76.95;98600.02;1699020;84;21131;-71
2021/05/18 12:24:42;;;;;;;7.30;4.58;;;;;;;18.18;78.72;98593.78;1702970;84;21171;-71
2021/05/18 12:27:10;;;;;;;8.53;4.45;;;;;;;18.13;81.77;98596.04;1682867;84;21504;-70
2021/05/18 12:29:45;;;;;;;9.63;4.15;;;;;;;18.06;82.08;98589.60;1694645;84;21147;-69
2021/05/18 12:32:30;;;;;;;8.23;4.00;;;;;;;18.07;82.85;98592.60;1726661;81;21630;-72
2021/05/18 12:35:20;;;;;;;11.20;3.92;;;;;;;18.10;82.74;98596.30;1736366;81;21427;-72
2021/05/18 12:37:52;;;;;;;15.13;5.60;;;;;;;18.11;84.84;98599.33;1730982;81;21139;-74
2021/05/18 12:40:32;;;;;;;8.73;4.20;;;;;;;18.05;85.25;98603.88;1720312;81;21672;-72
2021/05/18 12:43:21;;;;;;;6.33;4.20;;;;;;;18.00;85.03;98603.47;1737727;81;21115;-73
2021/05/18 12:45:46;;;;;;;8.95;4.30;;;;;;;17.91;85.60;98605.16;1726649;81;20965;-72
2021/05/18 12:48:13;;;;;;;6.80;4.00;;;;;;;17.82;86.68;98602.84;1626472;85;21091;-72
2021/05/18 12:50:49;;;;;;;10.82;6.08;;;;;;;17.71;86.17;98600.77;1656741;86;21115;-71
2021/05/18 12:53:28;;;;;;;8.98;5.10;;;;;;;17.55;88.50;98593.33;1648649;86;21124;-71
2021/05/18 12:55:57;;;;;;;10.08;4.12;;;;;;;17.46;88.24;98604.80;1654410;86;21168;-73
2021/05/18 12:58:30;;;;;;;9.55;4.92;;;;;;;17.34;87.84;98622.22;1664517;85;21071;-72
2021/05/18 13:01:11;;;;;;;9.60;4.35;;;;;;;17.23;88.85;98619.70;1675018;80;21482;-75
2021/05/18 13:03:40;;;;;;;10.20;4.60;;;;;;;17.08;89.18;98625.03;1708599;83;21062;-73
2021/05/18 13:08:18;;;;;;;6.92;4.00;;;;;;;16.94;88.45;98626.23;1765129;78;22560;-74
2021/05/18 13:13:25;;;;;;;10.58;4.95;;;;;;;16.83;87.03;98639.13;1648857;83;21140;-75
2021/05/18 13:16:07;;;;;;;17.45;5.87;;;;;;;16.84;87.81;98635.51;1714359;80;21837;31
2021/05/18 13:18:34;;;;;;;12.65;5.42;;;;;;;16.82;89.26;98622.83;1649584;84;21135;-74
2021/05/18 13:21:01;;;;;;;9.55;4.90;;;;;;;16.77;89.77;98628.98;1675946;84;21136;-77
2021/05/18 13:23:40;;;;;;;9.30;4.67;;;;;;;16.71;90.15;98629.53;1681191;84;21027;-77
2021/05/18 13:28:46;;;;;;;14.10;5.78;;;;;;;16.67;90.75;98643.55;1656939;85;21666;-71
2021/05/18 13:31:15;;;;;;;11.08;5.40;;;;;;;16.62;91.43;98648.92;1676838;81;21362;-73
2021/05/18 13:33:44;;;;;;;13.00;5.75;;;;;;;16.53;91.55;98652.70;1635020;86;22284;-72
2021/05/18 13:36:13;;;;;;;13.85;6.05;;;;;;;16.49;91.42;98666.39;1616806;88;21074;-72
2021/05/18 13:38:40;;;;;;;15.28;6.47;;;;;;;16.43;91.48;98670.42;1619871;88;21092;-73
2021/05/18 13:41:07;;;;;;;9.95;5.55;;;;;;;16.38;92.40;98677.94;1622153;87;21145;-73
2021/05/18 13:43:34;;;;;;;9.28;4.92;;;;;;;16.28;91.16;98671.70;1640670;86;21432;-75
2021/05/18 13:46:02;;;;;;;11.57;5.40;;;;;;;16.19;90.90;98656.04;1630549;83;21590;-75
2021/05/18 13:48:28;;;;;;;10.63;5.70;;;;;;;16.11;92.40;98639.42;1621861;86;21135;-71
2021/05/18 13:50:56;;;;;;;9.58;5.25;;;;;;;16.03;93.13;98611.83;1649472;86;21109;-73
2021/05/18 13:53:23;;;;;;;11.88;5.10;;;;;;;15.94;93.13;98610.77;1645599;86;21111;-75
2021/05/18 13:55:51;;;;;;;7.97;5.15;;;;;;;15.93;93.37;98609.10;1611769;87;21626;-74
2021/05/18 13:58:18;;;;;;;6.62;4.25;;;;;;;15.97;93.63;98613.20;1645417;85;21083;-74
2021/05/18 14:00:45;;;;;;;9.35;5.30;;;;;;;16.03;93.78;98612.66;1645844;86;21093;-74
2021/05/18 14:03:12;;;;;;;9.48;4.92;;;;;;;16.06;93.67;98604.95;1601154;83;21681;-72
2021/05/18 14:05:39;;;;;;;7.78;4.45;;;;;;;16.11;93.83;98606.73;1630143;87;21115;-71
2021/05/18 14:08:22;;;;;;;8.53;4.28;;;;;;;16.22;94.05;98611.11;1626210;87;21127;-73
2021/05/18 14:11:11;;;;;;;6.65;4.40;;;;;;;16.29;94.16;98611.81;1625197;87;30879;-70
2021/05/18 14:13:45;;;;;;;11.70;5.45;;;;;;;16.38;93.12;98618.62;1627497;87;21123;-74
2021/05/18 14:16:19;;;;;;;13.22;5.20;;;;;;;16.42;92.92;98606.28;1630939;81;21617;-72
2021/05/18 14:18:53;;;;;;;8.15;4.42;;;;;;;16.45;93.31;98598.06;1673841;84;21098;-71
2021/05/18 14:21:25;;;;;;;7.55;4.58;;;;;;;16.47;93.59;98592.14;1660606;84;21472;-70
2021/05/18 14:24:09;;;;;;;10.90;4.92;;;;;;;16.48;93.42;98579.69;1673158;84;21121;-70
2021/05/18 14:26:25;;;;;;;8.58;3.90;;;;;;;16.58;93.43;98589.38;1658512;84;21063;-71
2021/05/18 14:28:52;;;;;;;7.83;4.00;;;;;;;16.70;92.56;98591.94;1659060;84;21124;-72
2021/05/18 14:31:21;;;;;;;6.20;4.35;;;;;;;16.78;91.91;98592.13;1657417;82;21123;-74
2021/05/18 14:33:48;;;;;;;8.55;4.45;;;;;;;16.82;91.19;98579.43;1612434;88;21071;-75
2021/05/18 14:36:15;;;;;;;6.45;3.83;;;;;;;16.86;90.69;98581.69;1615611;88;21123;-74
2021/05/18 14:38:45;;;;;;;22.85;4.78;;;;;;;16.92;90.71;98582.48;1616232;88;21193;-75
2021/05/18 14:44:11;;;;;;;5.33;4.00;;;;;;;16.95;90.57;98580.05;1594291;88;21185;-74
2021/05/18 14:57:11;;;;;;;12.15;7.58;;;;;;;17.14;89.25;98574.80;1671086;84;21137;-71
2021/05/18 14:59:38;;;;;;;16.07;7.20;;;;;;;17.19;89.13;98575.22;1656303;84;21176;-70
2021/05/18 15:02:05;;;;;;;16.20;7.80;;;;;;;17.23;89.55;98573.14;1667250;83;21636;-72
2021/05/18 15:04:34;;;;;;;12.03;6.65;;;;;;;17.26;88.31;98576.84;1691073;84;21070;-74
2021/05/18 15:07:06;;;;;;;11.57;6.85;;;;;;;17.29;87.30;98575.23;1692832;83;21792;-73
2021/05/18 15:09:39;;;;;;;11.85;6.70;;;;;;;17.29;87.15;98572.57;1690486;83;21117;-73
2021/05/18 15:12:08;;;;;;;18.00;6.40;;;;;;;17.34;88.52;98574.81;1690292;84;21674;-74
2021/05/18 15:14:36;;;;;;;18.62;5.50;;;;;;;17.38;89.65;98573.57;1688116;83;21423;-72
2021/05/18 15:17:03;;;;;;;12.40;5.05;;;;;;;17.38;89.89;98569.08;1681285;80;21168;-73
2021/05/18 15:19:31;;;;;;;11.20;4.85;;;;;;;17.37;88.81;98570.08;1694923;83;21682;-74
2021/05/18 15:22:01;;;;;;;9.78;5.22;;;;;;;17.33;87.53;98571.33;1678482;84;21150;-74
2021/05/18 15:24:28;;;;;;;;;;;;;;;17.28;85.90;98588.69;1685091;84;21172;-73
2021/05/18 15:26:55;;;;;;;7.40;4.30;;;;;;;17.22;85.19;98587.41;1686044;84;20295;-73
2021/05/18 15:29:22;;;;;;;10.05;5.45;;;;;;;17.15;84.70;98587.59;1674411;85;21244;-73
2021/05/18 15:31:50;;;;;;;10.63;5.12;;;;;;;17.10;85.41;98580.52;1665261;82;21318;-75
2021/05/18 15:34:18;;;;;;;9.00;4.95;;;;;;;17.04;86.36;98571.25;1634781;85;21104;-75
2021/05/18 15:36:46;;;;;;;14.98;5.15;;;;;;;16.99;86.46;98570.33;1651238;85;21222;-74
2021/05/18 15:39:12;;;;;;;7.55;4.75;;;;;;;16.98;87.33;98564.67;1642661;87;21116;-71
2021/05/18 15:41:40;;;;;;;14.18;5.12;;;;;;;16.94;87.28;98565.91;1642448;87;22253;-72
2021/05/18 15:44:07;;;;;;;12.30;4.80;;;;;;;16.89;87.33;98560.17;1664065;86;21620;-72
2021/05/18 15:46:34;;;;;;;12.33;5.10;;;;;;;16.85;87.73;98552.59;1666925;82;21769;-73
2021/05/18 15:49:02;;;;;;;7.28;4.40;;;;;;;16.83;88.11;98552.72;1643316;85;21087;-74
2021/05/18 15:51:30;;;;;;;6.87;4.30;;;;;;;16.80;86.75;98546.84;1651672;85;21107;-72
2021/05/18 15:53:57;;;;;;;6.37;4.28;;;;;;;16.74;86.40;98546.85;1657760;85;21153;-72
2021/05/18 15:56:24;;;;;;;11.78;4.58;;;;;;;16.68;86.17;98544.72;1653065;85;21115;-71
2021/05/18 15:58:59;;;;;;;9.55;4.67;;;;;;;16.62;86.21;98541.28;1705271;83;21083;-72
2021/05/18 16:01:39;;;;;;;12.03;5.50;;;;;;;16.59;87.11;98535.75;1698876;83;21077;-72
2021/05/18 16:04:07;;;;;;;10.72;4.90;;;;;;;16.57;86.73;98531.89;1721870;82;21604;-71
2021/05/18 16:06:43;;;;;;;9.90;4.62;;;;;;;16.58;86.82;98533.56;1733927;80;21089;-70
2021/05/18 16:09:13;;;;;;;11.68;4.50;;;;;;;16.61;86.05;98532.48;1700661;84;21167;-71
2021/05/18 16:11:41;;;;;;;13.20;5.90;;;;;;;16.61;83.04;98531.61;1690702;84;21155;-72
2021/05/18 16:14:09;;;;;;;19.17;6.00;;;;;;;16.61;84.17;98526.30;1684322;83;21071;-73
2021/05/18 16:16:57;;;;;;;6.87;4.35;;;;;;;16.62;82.23;98521.36;1715786;81;21681;-71
2021/05/18 16:19:24;;;;;;;8.25;3.92;;;;;;;16.61;80.67;98511.22;1625357;87;21109;-70
2021/05/18 16:21:51;;;;;;;11.53;4.47;;;;;;;16.60;80.36;98520.15;1610506;88;21464;-71
2021/05/18 16:24:20;;;;;;;13.53;4.78;;;;;;;16.56;79.90;98531.55;1622698;87;21118;-72
2021/05/18 16:26:49;;;;;;;10.60;3.80;;;;;;;16.51;80.79;98535.08;1622105;86;21111;-73
2021/05/18 16:29:18;;;;;;;12.33;4.25;;;;;;;16.47;81.10;98531.03;1644038;86;21617;-71
2021/05/18 16:31:45;;;;;;;7.28;3.47;;;;;;;16.41;82.22;98528.89;1642137;83;21103;-68
2021/05/18 16:34:12;;;;;;;8.13;3.40;;;;;;;16.36;81.78;98527.12;1704445;83;21276;-74
2021/05/18 16:36:39;;;;;;;5.72;3.27;;;;;;;16.31;82.26;98530.18;1711412;83;22140;-73
2021/05/18 16:39:08;;;;;;;4.28;3.22;;;;;;;16.27;82.09;98529.25;1658548;85;21114;-72
2021/05/18 16:41:39;;;;;;;4.40;3.05;;;;;;;16.22;82.78;98519.02;1672771;83;21662;-69
2021/05/18 16:44:07;;;;;;;4.37;2.98;;;;;;;16.18;82.44;98516.76;1699333;83;21120;-72
2021/05/18 16:46:36;;;;;;;8.50;3.50;;;;;;;16.17;83.03;98517.71;1701290;83;21087;-72
2021/05/18 16:49:06;;;;;;;5.12;2.85;;;;;;;16.14;83.10;98506.38;1701993;83;21075;-69